Time;durP1;ratioP1;P1;durP2;ratioP2;P2;SDS_P1;SDS_P2;PMS_P1;PMS_P2;Temp;Humidity;BMP_temperature;BMP_pressure;BME280_temperature;BME280_humidity;BME280_pressure;Samples;Min_cycle;Max_cycle;Signal;HPM_P1;HPM_P2
2023/01/20 00:01:35;;;;;;;12.80;6.78;;;0.50;99.90;;;;;;5107209;28;20039;-70
2023/01/20 00:04:02;;;;;;;16.00;7.90;;;0.50;99.90;;;;;;5108459;28;20050;-68
2023/01/20 00:06:28;;;;;;;18.67;8.82;;;0.60;99.90;;;;;;5112633;28;20429;-69
2023/01/20 00:08:56;;;;;;;18.15;8.40;;;0.50;99.90;;;;;;5106384;28;20031;-68
2023/01/20 00:11:24;;;;;;;18.95;8.90;;;0.60;99.90;;;;;;5108617;28;20489;-68
2023/01/20 00:13:58;;;;;;;20.13;9.00;;;0.70;99.90;;;;;;5108962;28;20405;-69
2023/01/20 00:16:25;;;;;;;19.60;8.93;;;0.80;99.90;;;;;;5110630;28;20073;-69
2023/01/20 00:18:50;;;;;;;18.25;8.48;;;0.80;99.90;;;;;;5110828;28;20042;-71
2023/01/20 00:21:17;;;;;;;21.70;9.90;;;0.80;99.90;;;;;;5102452;28;20031;-68
2023/01/20 00:23:44;;;;;;;19.25;8.88;;;0.70;99.90;;;;;;5091927;27;20363;-68
2023/01/20 00:26:13;;;;;;;19.95;9.30;;;0.80;99.90;;;;;;5109991;28;20039;-71
2023/01/20 00:28:39;;;;;;;20.83;9.05;;;0.90;99.90;;;;;;5106374;28;20043;-69
2023/01/20 00:31:19;;;;;;;20.00;9.18;;;0.90;99.90;;;;;;5110897;28;20035;-68
2023/01/20 00:33:46;;;;;;;18.55;8.57;;;0.90;99.90;;;;;;5092714;28;20110;-69
2023/01/20 00:36:14;;;;;;;19.48;9.50;;;0.90;99.90;;;;;;5108035;28;20087;-70
2023/01/20 00:38:39;;;;;;;20.15;9.10;;;0.90;99.90;;;;;;5109835;28;20825;-69
2023/01/20 00:41:06;;;;;;;17.58;8.60;;;0.80;99.90;;;;;;5108446;28;20153;-70
2023/01/20 00:43:32;;;;;;;18.55;8.88;;;0.80;99.90;;;;;;5104883;28;20042;-70
2023/01/20 00:45:58;;;;;;;17.65;8.60;;;0.80;99.90;;;;;;5094222;27;20031;-68
2023/01/20 00:48:24;;;;;;;17.83;8.98;;;0.70;99.90;;;;;;5115674;27;20188;-70
2023/01/20 00:50:49;;;;;;;19.58;9.30;;;0.60;99.90;;;;;;5107371;27;20497;-69
2023/01/20 00:53:16;;;;;;;21.08;10.13;;;0.50;99.90;;;;;;5116350;27;20485;-69
2023/01/20 00:55:41;;;;;;;20.17;9.68;;;0.50;99.90;;;;;;5119310;27;20443;-70
2023/01/20 00:58:07;;;;;;;22.38;10.40;;;0.60;99.90;;;;;;5118401;27;20031;-68
2023/01/20 01:00:32;;;;;;;20.10;9.80;;;0.60;99.90;;;;;;5110010;27;20038;-70
2023/01/20 01:02:58;;;;;;;22.02;10.60;;;0.60;99.90;;;;;;5114509;27;20043;-67
2023/01/20 01:05:24;;;;;;;21.70;11.10;;;0.60;99.90;;;;;;5107748;27;20503;-69
2023/01/20 01:07:49;;;;;;;22.60;11.13;;;0.70;99.90;;;;;;5102886;27;20054;-66
2023/01/20 01:10:15;;;;;;;23.27;11.35;;;0.60;99.90;;;;;;5106625;27;20053;-69
2023/01/20 01:12:41;;;;;;;26.63;12.23;;;0.60;99.90;;;;;;5108269;27;20058;-69
2023/01/20 01:15:07;;;;;;;23.67;12.10;;;0.60;99.90;;;;;;5112045;27;20035;-68
2023/01/20 01:17:33;;;;;;;27.98;13.18;;;0.80;99.90;;;;;;5095996;28;20038;-66
2023/01/20 01:19:58;;;;;;;30.70;14.15;;;0.80;99.90;;;;;;5096154;27;20452;-65
2023/01/20 01:22:24;;;;;;;29.60;13.35;;;0.70;99.90;;;;;;5112817;27;20049;-66
2023/01/20 01:24:49;;;;;;;28.63;13.32;;;0.80;99.90;;;;;;5103995;27;20578;-67
2023/01/20 01:27:15;;;;;;;31.40;13.35;;;0.80;99.90;;;;;;5104000;27;20122;-65
2023/01/20 01:29:41;;;;;;;38.00;15.40;;;0.80;99.90;;;;;;5113665;27;20039;-68
2023/01/20 01:32:06;;;;;;;31.40;13.80;;;0.70;99.90;;;;;;5113739;27;20082;-68
2023/01/20 01:34:32;;;;;;;31.92;14.30;;;0.70;99.90;;;;;;5120962;27;20037;-71
2023/01/20 01:36:58;;;;;;;36.53;15.18;;;0.80;99.90;;;;;;5096957;27;20401;-66
2023/01/20 01:39:24;;;;;;;45.22;17.75;;;0.70;99.90;;;;;;5123880;27;20031;-67
2023/01/20 01:41:50;;;;;;;42.47;15.55;;;0.80;99.90;;;;;;5078500;28;20063;-68
2023/01/20 01:44:16;;;;;;;38.22;16.25;;;0.70;99.90;;;;;;5100709;27;20381;-69
2023/01/20 01:46:42;;;;;;;36.33;16.20;;;0.80;99.90;;;;;;5104955;27;20035;-68
2023/01/20 01:49:23;;;;;;;36.08;15.65;;;0.70;99.90;;;;;;5109858;27;20042;-69
2023/01/20 01:51:54;;;;;;;33.88;14.68;;;0.80;99.90;;;;;;5112981;27;20039;-67
2023/01/20 01:54:24;;;;;;;40.67;16.73;;;0.80;99.90;;;;;;5108532;27;20560;-68
2023/01/20 01:56:50;;;;;;;37.95;15.32;;;0.70;99.90;;;;;;5113055;27;20095;-70
2023/01/20 01:59:17;;;;;;;36.70;15.98;;;0.80;99.90;;;;;;5119172;27;20030;-71
2023/01/20 02:01:49;;;;;;;37.08;15.65;;;0.80;99.90;;;;;;5111189;27;20038;-71
2023/01/20 02:04:20;;;;;;;35.42;15.45;;;0.70;99.90;;;;;;5089001;27;20125;-70
2023/01/20 02:06:54;;;;;;;40.63;16.27;;;0.70;99.90;;;;;;5108348;27;20035;-70
2023/01/20 02:09:20;;;;;;;38.95;15.30;;;0.70;99.90;;;;;;5104177;28;20045;-69
2023/01/20 02:11:50;;;;;;;40.17;14.85;;;0.80;99.90;;;;;;5105357;27;20053;-67
2023/01/20 02:14:34;;;;;;;37.63;14.30;;;0.70;99.90;;;;;;5106236;27;20136;-67
2023/01/20 02:17:14;;;;;;;39.40;15.07;;;0.80;99.90;;;;;;5100682;27;20040;-68
2023/01/20 02:19:59;;;;;;;37.97;14.45;;;0.70;99.90;;;;;;5110364;27;20473;-66
2023/01/20 02:22:33;;;;;;;39.22;15.15;;;0.80;99.90;;;;;;5099793;27;20119;-68
2023/01/20 02:25:08;;;;;;;38.70;14.73;;;0.70;99.90;;;;;;5084772;27;20468;-69
2023/01/20 02:28:00;;;;;;;37.88;14.57;;;0.70;99.90;;;;;;5108358;27;20031;-70
2023/01/20 02:31:04;;;;;;;45.70;16.88;;;0.80;99.90;;;;;;5120311;27;20134;-68
2023/01/20 02:33:32;;;;;;;40.70;15.32;;;0.70;99.90;;;;;;5104117;27;20035;-69
2023/01/20 02:36:04;;;;;;;39.20;15.20;;;0.80;99.90;;;;;;5111956;27;20478;-68
2023/01/20 02:38:55;;;;;;;40.85;15.15;;;0.70;99.90;;;;;;5109261;27;20465;-68
2023/01/20 02:41:36;;;;;;;41.13;14.90;;;0.80;99.90;;;;;;5103813;27;20035;-67
2023/01/20 02:44:21;;;;;;;36.83;13.77;;;0.80;99.90;;;;;;5106145;27;20043;-67
2023/01/20 02:46:49;;;;;;;39.83;16.20;;;0.90;99.90;;;;;;5086502;27;20043;-65
2023/01/20 02:49:19;;;;;;;39.05;15.07;;;0.80;99.90;;;;;;5103373;27;20114;-68
2023/01/20 02:52:23;;;;;;;42.50;15.73;;;0.70;99.90;;;;;;5103914;27;20039;-68
2023/01/20 02:54:53;;;;;;;41.13;15.20;;;0.90;99.90;;;;;;5105734;27;20509;-67
2023/01/20 02:57:34;;;;;;;44.63;15.57;;;0.70;99.90;;;;;;5103884;27;20072;-67
2023/01/20 03:00:08;;;;;;;40.58;14.80;;;0.80;99.90;;;;;;5114206;27;20445;-66
2023/01/20 03:02:35;;;;;;;42.33;15.55;;;0.70;99.90;;;;;;5107959;27;20126;-67
2023/01/20 03:05:09;;;;;;;38.10;14.30;;;0.90;99.90;;;;;;5110290;28;20031;-68
2023/01/20 03:07:38;;;;;;;41.78;14.90;;;0.90;99.90;;;;;;5091202;27;20027;-69
2023/01/20 03:10:08;;;;;;;43.40;15.18;;;0.80;99.90;;;;;;5119029;27;20049;-68
2023/01/20 03:12:54;;;;;;;43.70;14.93;;;0.90;99.90;;;;;;5115676;27;20043;-70
2023/01/20 03:15:23;;;;;;;38.90;14.57;;;0.90;99.90;;;;;;5115329;27;20039;-69
2023/01/20 03:17:49;;;;;;;38.30;14.00;;;0.80;99.90;;;;;;5111289;27;20111;-69
2023/01/20 03:20:15;;;;;;;40.38;14.68;;;0.90;99.90;;;;;;5108810;27;20481;-69
2023/01/20 03:22:41;;;;;;;39.33;14.40;;;0.80;99.90;;;;;;5099746;27;20028;-68
2023/01/20 03:25:09;;;;;;;38.28;14.05;;;0.80;99.90;;;;;;5104479;27;20042;-66
2023/01/20 03:27:35;;;;;;;37.17;14.30;;;0.90;99.90;;;;;;5105136;27;20047;-70
2023/01/20 03:30:00;;;;;;;37.35;13.55;;;0.90;99.90;;;;;;5110700;27;20121;-69
2023/01/20 03:32:27;;;;;;;36.65;14.00;;;0.90;99.90;;;;;;5108525;28;20088;-68
2023/01/20 03:34:55;;;;;;;38.08;14.70;;;0.80;99.90;;;;;;5102617;28;20047;-69
2023/01/20 03:37:21;;;;;;;43.05;15.02;;;0.90;99.90;;;;;;5108928;27;20370;-69
2023/01/20 03:39:53;;;;;;;42.05;14.75;;;0.90;99.90;;;;;;5108257;27;20146;-69
2023/01/20 03:42:34;;;;;;;38.78;14.48;;;0.90;99.90;;;;;;5110206;27;20035;-69
2023/01/20 03:45:23;;;;;;;40.17;15.57;;;0.80;99.90;;;;;;5108805;28;20511;-70
2023/01/20 03:48:42;;;;;;;38.63;14.90;;;1.00;99.90;;;;;;5107465;28;20035;-69
2023/01/20 03:51:17;;;;;;;40.20;15.27;;;0.90;99.90;;;;;;5051465;28;20058;-67
2023/01/20 03:53:47;;;;;;;41.30;14.68;;;0.90;99.90;;;;;;5108635;27;20062;-69
2023/01/20 03:56:27;;;;;;;38.88;15.10;;;1.00;99.90;;;;;;5115025;28;20047;-68
2023/01/20 03:58:54;;;;;;;42.75;15.90;;;0.90;99.90;;;;;;5110602;27;20039;-69
2023/01/20 04:01:25;;;;;;;43.38;15.80;;;1.00;99.90;;;;;;5108775;28;20054;-69
2023/01/20 04:03:53;;;;;;;45.00;16.35;;;1.00;99.90;;;;;;5091094;27;20028;-70
2023/01/20 04:06:21;;;;;;;38.80;15.15;;;1.00;99.90;;;;;;5113336;27;20122;-69
2023/01/20 04:08:52;;;;;;;46.05;16.50;;;1.00;99.90;;;;;;5094303;27;20537;-68
2023/01/20 04:11:17;;;;;;;42.40;15.98;;;0.90;99.90;;;;;;5084066;28;20516;-65
2023/01/20 04:13:43;;;;;;;41.30;15.88;;;0.90;99.90;;;;;;5083524;28;20039;-69
2023/01/20 04:16:13;;;;;;;41.85;16.48;;;1.00;99.90;;;;;;5113749;28;20039;-68
2023/01/20 04:18:41;;;;;;;42.88;16.50;;;1.00;99.90;;;;;;5114295;28;20046;-69
2023/01/20 04:21:12;;;;;;;46.78;17.92;;;0.90;99.90;;;;;;5110331;27;20042;-68
2023/01/20 04:23:43;;;;;;;43.70;17.48;;;0.90;99.90;;;;;;5116305;27;20027;-69
2023/01/20 04:26:10;;;;;;;45.95;16.92;;;0.90;99.90;;;;;;5115302;27;20196;-69
2023/01/20 04:28:38;;;;;;;47.33;17.52;;;1.00;99.90;;;;;;5102270;27;20043;-68
2023/01/20 04:31:03;;;;;;;42.25;16.75;;;0.90;99.90;;;;;;5100588;27;20131;-69
2023/01/20 04:33:29;;;;;;;43.17;15.63;;;0.90;99.90;;;;;;5104842;27;20497;-68
2023/01/20 04:35:54;;;;;;;44.45;17.58;;;0.90;99.90;;;;;;5111663;27;20040;-68
2023/01/20 04:38:26;;;;;;;44.67;17.27;;;0.90;99.90;;;;;;5109325;27;20035;-68
2023/01/20 04:40:52;;;;;;;51.53;18.75;;;0.90;99.90;;;;;;5108580;27;20122;-67
2023/01/20 04:43:45;;;;;;;46.92;17.30;;;1.00;99.90;;;;;;5110563;27;20121;-68
2023/01/20 04:46:11;;;;;;;;;;;0.90;99.90;;;;;;5110512;28;20039;-68
2023/01/20 04:48:36;;;;;;;46.25;17.55;;;0.90;99.90;;;;;;5116190;27;19922;-68
2023/01/20 04:51:12;;;;;;;44.88;17.75;;;1.00;99.90;;;;;;5117717;27;20043;-67
2023/01/20 04:53:57;;;;;;;47.72;17.52;;;1.00;99.90;;;;;;5112257;28;20042;-69
2023/01/20 04:56:23;;;;;;;44.38;17.35;;;1.00;99.90;;;;;;5094017;27;20420;-69
2023/01/20 04:59:32;;;;;;;48.50;18.33;;;0.90;99.90;;;;;;5117848;27;20039;-68
2023/01/20 05:01:58;;;;;;;49.38;18.83;;;0.90;99.90;;;;;;5108740;27;20397;-67
2023/01/20 05:04:55;;;;;;;53.88;18.65;;;1.00;99.90;;;;;;5105107;27;20038;-68
2023/01/20 05:07:21;;;;;;;49.75;18.65;;;1.00;99.90;;;;;;5118011;27;20031;-68
2023/01/20 05:10:17;;;;;;;53.00;19.27;;;0.90;99.90;;;;;;5113591;27;20048;-69
2023/01/20 05:12:45;;;;;;;49.83;18.25;;;0.90;99.90;;;;;;5096842;28;20037;-68
2023/01/20 05:15:10;;;;;;;48.78;18.25;;;0.90;99.90;;;;;;5101332;27;20043;-68
2023/01/20 05:17:36;;;;;;;52.65;19.45;;;0.90;99.90;;;;;;5102573;27;20370;-69
2023/01/20 05:20:02;;;;;;;53.08;18.63;;;1.00;99.90;;;;;;5102354;27;20031;-68
2023/01/20 05:22:31;;;;;;;49.20;18.88;;;1.00;99.90;;;;;;5112575;27;20067;-69
2023/01/20 05:24:58;;;;;;;57.10;19.42;;;0.90;99.90;;;;;;5109013;27;20117;-68
2023/01/20 05:27:24;;;;;;;48.67;18.70;;;0.90;99.90;;;;;;5117776;27;20083;-68
2023/01/20 05:30:40;;;;;;;55.70;18.25;;;1.00;99.90;;;;;;5115267;27;20044;-69
2023/01/20 05:33:05;;;;;;;53.80;19.33;;;1.10;99.90;;;;;;5103468;27;20393;-68
2023/01/20 05:35:36;;;;;;;58.55;19.05;;;0.90;99.90;;;;;;5091491;27;20040;-68
2023/01/20 05:38:02;;;;;;;50.65;18.83;;;1.00;99.90;;;;;;5102168;27;20175;-67
2023/01/20 05:40:27;;;;;;;56.63;19.90;;;1.00;99.90;;;;;;5110345;27;20035;-66
2023/01/20 05:42:57;;;;;;;56.97;20.90;;;1.10;99.90;;;;;;5116160;27;20084;-68
2023/01/20 05:48:54;;;;;;;52.63;19.17;;;0.90;99.90;;;;;;5105207;27;20049;-68
2023/01/20 05:51:20;;;;;;;57.08;20.33;;;1.00;99.90;;;;;;5108156;27;20039;-67
2023/01/20 05:53:46;;;;;;;60.88;20.95;;;0.90;99.90;;;;;;5103910;27;20035;-67
2023/01/20 05:56:14;;;;;;;60.05;21.13;;;1.00;99.90;;;;;;5114136;27;20065;-67
2023/01/20 05:58:40;;;;;;;57.78;21.42;;;1.00;99.90;;;;;;5112476;27;20438;-68
2023/01/20 06:04:48;;;;;;;62.15;21.70;;;1.00;99.90;;;;;;5128367;27;20034;-67
2023/01/20 06:07:14;;;;;;;61.78;21.15;;;1.00;99.90;;;;;;5115295;27;20043;-66
2023/01/20 06:09:40;;;;;;;62.90;23.55;;;0.90;99.90;;;;;;5105499;27;20039;-65
2023/01/20 06:12:05;;;;;;;69.50;22.83;;;0.90;99.90;;;;;;5098893;27;20160;-64
2023/01/20 06:14:31;;;;;;;59.22;22.00;;;0.90;99.90;;;;;;5117256;27;20521;-66
2023/01/20 06:16:57;;;;;;;62.20;23.10;;;1.00;99.90;;;;;;5097362;28;20060;-67
2023/01/20 06:19:23;;;;;;;62.13;23.05;;;1.00;99.90;;;;;;5104920;27;20235;-68
2023/01/20 06:21:49;;;;;;;64.15;23.40;;;1.10;99.90;;;;;;5111233;27;20038;-65
2023/01/20 06:24:14;;;;;;;70.55;24.65;;;1.10;99.90;;;;;;5106721;27;20031;-65
2023/01/20 06:27:14;;;;;;;67.55;24.73;;;1.00;99.90;;;;;;5104769;27;20035;-66
2023/01/20 06:33:28;;;;;;;68.57;24.60;;;1.00;99.90;;;;;;5124247;27;20022;-68
2023/01/20 06:35:59;;;;;;;;;;;1.10;99.90;;;;;;5104062;27;20047;-65
2023/01/20 06:38:29;;;;;;;65.65;23.80;;;1.00;99.90;;;;;;5106918;27;19922;-66
2023/01/20 06:41:13;;;;;;;70.28;25.25;;;0.90;99.90;;;;;;5110585;27;20054;-67
2023/01/20 06:44:02;;;;;;;63.90;23.55;;;1.00;99.90;;;;;;5111313;27;20039;-68
2023/01/20 06:46:27;;;;;;;68.10;23.50;;;1.00;99.90;;;;;;5104922;27;20117;-68
2023/01/20 06:48:59;;;;;;;70.93;24.48;;;1.00;99.90;;;;;;5106609;28;20130;-68
2023/01/20 06:51:30;;;;;;;71.63;24.65;;;1.10;99.90;;;;;;5099759;27;20508;-68
2023/01/20 06:53:56;;;;;;;68.15;24.30;;;1.00;99.90;;;;;;5101635;27;20039;-67
2023/01/20 06:56:22;;;;;;;68.30;24.80;;;1.10;99.90;;;;;;5108878;27;20451;-66
2023/01/20 07:02:29;;;;;;;76.15;24.45;;;1.00;99.90;;;;;;5130262;27;20057;-68
2023/01/20 07:04:54;;;;;;;74.13;26.25;;;0.90;99.90;;;;;;5127718;27;20454;-68
2023/01/20 07:07:20;;;;;;;77.35;25.63;;;1.00;99.90;;;;;;5115941;27;20039;-66
2023/01/20 07:09:46;;;;;;;78.15;25.92;;;1.00;99.90;;;;;;5102917;27;20046;-69
2023/01/20 07:12:12;;;;;;;72.50;24.38;;;0.90;99.90;;;;;;5110946;27;20043;-66
2023/01/20 07:14:37;;;;;;;68.38;25.23;;;1.00;99.90;;;;;;5115021;27;20039;-67
2023/01/20 07:17:05;;;;;;;70.47;25.95;;;1.10;99.90;;;;;;5109467;27;20080;-67
2023/01/20 07:19:40;;;;;;;79.30;25.65;;;1.00;99.90;;;;;;5109956;27;20039;-67
2023/01/20 07:22:05;;;;;;;74.13;25.98;;;1.00;99.90;;;;;;5127456;27;20027;-68
2023/01/20 07:24:31;;;;;;;72.20;24.02;;;1.00;99.90;;;;;;5106687;27;20028;-68
2023/01/20 07:26:56;;;;;;;79.57;25.33;;;1.00;99.90;;;;;;5084250;28;20046;-68
2023/01/20 07:33:32;;;;;;;73.82;24.73;;;1.00;99.90;;;;;;5123269;27;20252;-68
2023/01/20 07:39:39;;;;;;;78.78;24.60;;;1.10;99.90;;;;;;5124155;27;20048;-71
2023/01/20 07:42:05;;;;;;;82.65;26.23;;;1.00;99.90;;;;;;5108287;28;20176;-65
2023/01/20 07:51:52;;;;;;;87.80;28.17;;;1.00;99.90;;;;;;5124600;27;20034;-66
2023/01/20 07:54:18;;;;;;;76.47;25.30;;;1.10;99.90;;;;;;5083230;28;20031;-67
2023/01/20 07:56:43;;;;;;;85.05;25.95;;;1.00;99.90;;;;;;5129124;27;20035;-67
2023/01/20 07:59:09;;;;;;;84.63;26.88;;;1.20;99.90;;;;;;5108821;27;20062;-67
2023/01/20 08:01:35;;;;;;;79.95;25.38;;;1.10;99.90;;;;;;5111710;27;20031;-69
2023/01/20 08:07:51;;;;;;;83.47;26.00;;;1.10;99.90;;;;;;5132490;27;20116;-67
2023/01/20 08:10:32;;;;;;;91.30;27.27;;;1.20;99.90;;;;;;5112768;27;20054;-67
2023/01/20 08:13:01;;;;;;;82.63;26.50;;;1.20;99.90;;;;;;5113250;27;20081;-65
2023/01/20 08:15:42;;;;;;;87.65;26.52;;;1.20;99.90;;;;;;5111386;27;20035;-67
2023/01/20 08:18:07;;;;;;;95.13;27.85;;;1.20;99.90;;;;;;5086926;27;20035;-68
2023/01/20 08:20:33;;;;;;;88.38;26.33;;;1.20;99.90;;;;;;5105290;27;20566;-69
2023/01/20 08:22:59;;;;;;;87.18;26.92;;;1.30;99.90;;;;;;5119652;27;20035;-68
2023/01/20 08:25:25;;;;;;;83.18;27.20;;;1.20;99.90;;;;;;5086472;27;20039;-66
2023/01/20 08:27:50;;;;;;;83.78;28.35;;;1.30;99.90;;;;;;5098119;27;20109;-66
2023/01/20 08:30:16;;;;;;;87.07;26.17;;;1.20;99.90;;;;;;5105776;27;20035;-68
2023/01/20 08:32:42;;;;;;;80.03;25.85;;;1.30;99.90;;;;;;5106286;27;20043;-67
2023/01/20 08:35:07;;;;;;;84.20;25.52;;;1.30;99.90;;;;;;5122648;27;20493;-68
2023/01/20 08:37:35;;;;;;;89.00;27.13;;;1.30;99.90;;;;;;5108853;27;20035;-66
2023/01/20 08:40:01;;;;;;;83.40;25.73;;;1.40;99.90;;;;;;5105355;27;20420;-69
2023/01/20 08:42:26;;;;;;;81.38;25.60;;;1.40;99.90;;;;;;5100146;27;20393;-69
2023/01/20 08:44:52;;;;;;;77.88;25.80;;;1.50;99.90;;;;;;5101868;27;20041;-66
2023/01/20 08:47:18;;;;;;;84.22;25.20;;;1.50;99.90;;;;;;5104479;27;20620;-67
2023/01/20 08:49:43;;;;;;;81.32;24.75;;;1.50;99.90;;;;;;5105738;27;20039;-68
2023/01/20 08:52:09;;;;;;;82.82;25.02;;;1.60;99.90;;;;;;5110221;27;20125;-68
2023/01/20 08:54:34;;;;;;;82.53;25.88;;;1.60;99.90;;;;;;5105787;27;20031;-67
2023/01/20 08:57:00;;;;;;;84.20;25.42;;;1.70;99.90;;;;;;5104988;27;20042;-67
2023/01/20 08:59:26;;;;;;;86.00;26.98;;;1.60;99.90;;;;;;5101131;27;20035;-69
2023/01/20 09:01:51;;;;;;;77.93;26.30;;;1.70;99.90;;;;;;5101193;27;20035;-70
2023/01/20 09:04:17;;;;;;;81.70;25.50;;;1.70;99.90;;;;;;5103867;27;20519;-68
2023/01/20 09:06:49;;;;;;;86.90;27.15;;;1.70;99.90;;;;;;5103938;27;20035;-70
2023/01/20 09:09:16;;;;;;;80.15;26.75;;;1.70;99.90;;;;;;5104376;27;20454;-70
2023/01/20 09:11:49;;;;;;;83.85;26.52;;;1.90;99.90;;;;;;5106995;27;20118;-68
2023/01/20 09:14:15;;;;;;;82.60;26.98;;;1.90;99.90;;;;;;5102113;27;20042;-68
2023/01/20 09:16:40;;;;;;;79.68;25.85;;;1.90;99.90;;;;;;5104116;27;20035;-66
2023/01/20 09:19:06;;;;;;;75.63;24.10;;;2.00;99.90;;;;;;5103142;27;20107;-69
2023/01/20 09:21:32;;;;;;;76.10;24.52;;;2.00;99.90;;;;;;5097954;27;20070;-68
2023/01/20 09:23:58;;;;;;;74.38;23.35;;;2.00;99.90;;;;;;5100146;27;20057;-69
2023/01/20 09:26:24;;;;;;;75.10;25.38;;;2.10;99.90;;;;;;5104772;27;20035;-69
2023/01/20 09:28:49;;;;;;;75.85;24.85;;;2.10;99.90;;;;;;5101949;27;20050;-66
2023/01/20 09:31:15;;;;;;;76.90;25.55;;;2.10;99.90;;;;;;5108434;27;20157;-67
2023/01/20 09:33:42;;;;;;;65.95;23.27;;;2.00;99.90;;;;;;5098535;27;20047;-69
2023/01/20 09:36:09;;;;;;;68.93;24.65;;;2.00;99.90;;;;;;5106612;27;20043;-67
2023/01/20 09:44:40;;;;;;;73.45;23.90;;;2.10;99.90;;;;;;5108672;27;20096;-65
2023/01/20 09:47:21;;;;;;;64.00;22.63;;;2.10;99.90;;;;;;5110812;27;20040;-67
2023/01/20 09:53:02;;;;;;;62.85;21.58;;;2.10;99.90;;;;;;5105991;27;20503;-66
2023/01/20 09:55:49;;;;;;;62.25;20.95;;;2.10;99.90;;;;;;5108671;27;20096;-67
2023/01/20 09:58:40;;;;;;;63.55;21.15;;;2.10;99.90;;;;;;5108547;27;20056;-65
2023/01/20 10:01:14;;;;;;;61.75;20.45;;;2.20;99.90;;;;;;5091596;27;20027;-65
2023/01/20 10:03:49;;;;;;;60.20;20.65;;;2.30;99.90;;;;;;5103159;27;20474;-67
2023/01/20 10:06:46;;;;;;;54.10;20.00;;;2.40;99.90;;;;;;5109211;27;20122;-65
2023/01/20 10:09:35;;;;;;;56.38;19.77;;;2.30;99.90;;;;;;5106283;27;20379;-65
2023/01/20 10:12:19;;;;;;;53.72;19.95;;;2.40;99.90;;;;;;5103631;27;20047;-65
2023/01/20 10:14:51;;;;;;;64.18;21.23;;;2.40;99.90;;;;;;5103575;27;20542;-66
2023/01/20 10:17:31;;;;;;;54.73;19.93;;;2.40;99.90;;;;;;5103394;27;20043;-66
2023/01/20 10:20:10;;;;;;;57.83;19.98;;;2.50;99.90;;;;;;5101930;27;20036;-65
2023/01/20 10:22:49;;;;;;;57.78;20.35;;;2.50;99.90;;;;;;5100644;27;20043;-65
2023/01/20 10:25:23;;;;;;;57.58;19.75;;;2.60;99.90;;;;;;5113913;27;20130;-66
2023/01/20 10:27:55;;;;;;;64.72;20.02;;;2.50;99.90;;;;;;5107910;27;20085;-66
2023/01/20 10:30:24;;;;;;;60.67;19.98;;;2.60;99.90;;;;;;5125649;27;20049;-67
2023/01/20 10:33:12;;;;;;;51.20;19.23;;;2.60;99.90;;;;;;5115909;27;20110;-66
2023/01/20 10:35:49;;;;;;;55.92;18.88;;;2.60;99.90;;;;;;5105817;27;20173;-66
2023/01/20 10:38:29;;;;;;;51.60;19.63;;;2.70;99.90;;;;;;5099168;28;20066;-66
2023/01/20 10:41:20;;;;;;;56.78;19.67;;;2.70;99.90;;;;;;5094239;28;20043;-65
2023/01/20 10:43:46;;;;;;;56.20;19.70;;;2.80;99.90;;;;;;5085922;27;20047;-66
2023/01/20 10:46:37;;;;;;;50.17;19.27;;;2.80;99.90;;;;;;5106807;27;20401;-66
2023/01/20 10:49:31;;;;;;;54.05;19.77;;;2.90;99.90;;;;;;5085875;27;20137;-66
2023/01/20 10:52:44;;;;;;;57.50;19.02;;;2.80;99.90;;;;;;5105371;28;20039;-65
2023/01/20 10:55:37;;;;;;;51.78;19.02;;;2.80;99.90;;;;;;5030912;28;20052;-66
2023/01/20 10:58:13;;;;;;;51.40;19.52;;;2.80;99.90;;;;;;5037767;28;20068;-65
2023/01/20 11:00:41;;;;;;;49.92;18.15;;;2.80;99.90;;;;;;5096018;27;20112;-65
2023/01/20 11:03:13;;;;;;;51.45;19.05;;;2.80;99.90;;;;;;5105071;27;20133;-67
2023/01/20 11:05:41;;;;;;;53.03;19.10;;;2.80;99.90;;;;;;5101256;27;20375;-66
2023/01/20 11:08:28;;;;;;;55.00;18.80;;;2.80;99.90;;;;;;5109811;27;20046;-65
2023/01/20 11:10:57;;;;;;;55.90;19.05;;;2.80;99.90;;;;;;5118783;27;20118;-67
2023/01/20 11:13:23;;;;;;;55.15;20.33;;;2.90;99.90;;;;;;5108138;28;20043;-66
2023/01/20 11:15:53;;;;;;;50.85;17.30;;;2.90;99.90;;;;;;5121140;27;20042;-65
2023/01/20 11:18:27;;;;;;;52.10;18.63;;;3.00;99.90;;;;;;5101443;27;20039;-65
2023/01/20 11:20:57;;;;;;;49.13;17.70;;;3.00;99.90;;;;;;5101618;27;20388;-67
2023/01/20 11:23:29;;;;;;;50.00;17.88;;;2.90;99.90;;;;;;5104740;27;20080;-65
2023/01/20 11:26:00;;;;;;;48.30;18.35;;;2.90;99.90;;;;;;5105895;27;20405;-64
2023/01/20 11:28:35;;;;;;;50.47;17.47;;;2.90;99.90;;;;;;5122074;27;20117;-65
2023/01/20 11:31:03;;;;;;;49.80;17.75;;;2.90;99.90;;;;;;5102272;28;20293;-67
2023/01/20 11:33:28;;;;;;;50.17;19.13;;;2.90;99.90;;;;;;5103031;27;20038;-65
2023/01/20 11:35:59;;;;;;;49.33;18.58;;;3.00;99.90;;;;;;5101447;27;20435;-67
2023/01/20 11:38:28;;;;;;;52.78;19.25;;;2.90;99.90;;;;;;5103304;27;20489;-66
2023/01/20 11:40:56;;;;;;;52.03;18.08;;;2.90;99.90;;;;;;5102912;27;20122;-65
2023/01/20 11:43:28;;;;;;;50.83;17.90;;;2.80;99.90;;;;;;5094978;28;20042;-65
2023/01/20 11:46:11;;;;;;;47.03;17.75;;;2.80;99.90;;;;;;5099586;28;20051;-64
2023/01/20 11:48:39;;;;;;;51.85;19.05;;;2.80;99.90;;;;;;5101988;28;20051;-64
2023/01/20 11:51:25;;;;;;;49.60;18.30;;;2.70;99.90;;;;;;5107019;28;20066;-65
2023/01/20 11:54:14;;;;;;;58.55;18.58;;;2.70;99.90;;;;;;5106038;28;20043;-64
2023/01/20 11:56:42;;;;;;;52.28;18.05;;;2.80;99.90;;;;;;5107627;28;20057;-65
2023/01/20 11:59:25;;;;;;;50.67;18.00;;;2.80;99.90;;;;;;5104607;28;20071;-64
2023/01/20 12:02:00;;;;;;;54.80;18.90;;;2.80;99.90;;;;;;5100872;28;20077;-65
2023/01/20 12:04:40;;;;;;;51.40;18.65;;;2.70;99.90;;;;;;5108004;28;20039;-64
2023/01/20 12:07:10;;;;;;;58.08;19.83;;;2.70;99.90;;;;;;5099855;28;20039;-66
2023/01/20 12:09:41;;;;;;;59.22;20.23;;;2.60;99.90;;;;;;5102697;28;20560;-65
2023/01/20 12:12:59;;;;;;;58.50;19.55;;;2.70;99.90;;;;;;5106049;28;20501;-64
2023/01/20 12:15:31;;;;;;;57.13;19.35;;;2.60;99.90;;;;;;5108304;28;20433;-65
2023/01/20 12:18:06;;;;;;;56.72;19.83;;;2.60;99.90;;;;;;5104224;28;20035;-63
2023/01/20 12:24:07;;;;;;;52.85;18.95;;;2.60;99.90;;;;;;5104633;27;20137;-64
2023/01/20 12:26:34;;;;;;;57.28;19.35;;;2.50;99.90;;;;;;5101789;28;20043;-64
2023/01/20 12:29:16;;;;;;;54.65;19.15;;;2.50;99.90;;;;;;5105297;28;20529;-64
2023/01/20 12:31:44;;;;;;;56.00;19.77;;;2.50;99.90;;;;;;5099522;28;20486;-64
2023/01/20 12:34:38;;;;;;;56.05;18.98;;;2.50;99.90;;;;;;5104103;28;20039;-64
2023/01/20 12:37:37;;;;;;;60.70;19.83;;;2.50;99.90;;;;;;5086605;28;20102;-64
2023/01/20 12:40:42;;;;;;;57.05;19.50;;;2.50;99.90;;;;;;5106727;28;20092;-65
2023/01/20 12:43:17;;;;;;;52.78;18.63;;;2.40;99.90;;;;;;5102765;28;20485;-66
2023/01/20 12:46:13;;;;;;;56.30;19.48;;;2.50;99.90;;;;;;5118405;27;20066;-65
2023/01/20 12:52:46;;;;;;;55.97;19.02;;;2.40;99.90;;;;;;5131390;27;20072;-65
2023/01/20 12:55:37;;;;;;;58.00;18.95;;;2.40;99.90;;;;;;5117471;27;20374;-64
2023/01/20 12:58:10;;;;;;;55.65;19.65;;;2.40;99.90;;;;;;5071841;27;20108;-66
2023/01/20 13:00:50;;;;;;;61.03;19.88;;;2.50;99.90;;;;;;5115122;27;20157;-66
2023/01/20 13:03:40;;;;;;;54.38;18.33;;;2.40;99.90;;;;;;5126113;27;20039;-66
2023/01/20 13:06:26;;;;;;;53.33;18.52;;;2.40;99.90;;;;;;5101404;28;20039;-66
2023/01/20 13:09:31;;;;;;;56.72;18.80;;;2.40;99.90;;;;;;5109286;27;20039;-65
2023/01/20 13:12:09;;;;;;;53.00;17.35;;;2.40;99.90;;;;;;5113351;27;20047;-64
2023/01/20 13:15:03;;;;;;;60.95;19.40;;;2.50;99.90;;;;;;5113110;27;20096;-65
2023/01/20 13:17:43;;;;;;;55.40;19.35;;;2.50;99.90;;;;;;5114343;27;20088;-66
2023/01/20 13:20:44;;;;;;;59.67;20.77;;;2.60;99.90;;;;;;5101779;27;20043;-64
2023/01/20 13:23:19;;;;;;;65.90;22.02;;;2.60;99.90;;;;;;5109510;27;20043;-64
2023/01/20 13:25:46;;;;;;;63.33;20.90;;;2.60;99.90;;;;;;5115744;27;20063;-65
2023/01/20 13:29:07;;;;;;;58.50;21.05;;;2.70;99.90;;;;;;5113584;27;20054;-64
2023/01/20 13:31:36;;;;;;;63.42;21.02;;;2.60;99.90;;;;;;5121236;27;20043;-65
2023/01/20 13:34:20;;;;;;;66.70;21.00;;;2.70;99.90;;;;;;5126991;27;20126;-64
2023/01/20 13:37:08;;;;;;;57.80;20.58;;;2.70;99.90;;;;;;5099575;27;20039;-64
2023/01/20 13:40:02;;;;;;;60.20;21.30;;;2.70;99.90;;;;;;5114423;27;20054;-65
2023/01/20 13:46:34;;;;;;;65.25;21.80;;;2.70;99.90;;;;;;5132252;27;20034;-64
2023/01/20 13:49:44;;;;;;;63.25;20.98;;;2.90;99.90;;;;;;5117908;27;20049;-65
2023/01/20 13:55:56;;;;;;;56.17;19.20;;;3.00;99.90;;;;;;5131235;27;20054;-63
2023/01/20 13:58:24;;;;;;;59.45;20.90;;;2.90;99.90;;;;;;5092043;27;20068;-65
2023/01/20 14:00:53;;;;;;;56.47;19.95;;;2.90;99.90;;;;;;5122916;27;20408;-65
2023/01/20 14:03:18;;;;;;;54.30;19.60;;;2.80;99.90;;;;;;5112520;27;20050;-64
2023/01/20 14:06:31;;;;;;;53.58;19.02;;;2.80;99.90;;;;;;5115617;27;20493;-65